CheckWX is a tool to help pilots better visualize weather data.  It is not intended as a substitute for an official pre-flight weather briefing.

07:14:28 UTC

PAGA TAF
Edward G Pitka Sr Airport
Galena, Alaska, USA
PAGA 180537Z 1806/1906 VRB05KT P6SM FEW035 SCT050 SCT100 FM180900 06008KT P6SM SCT035 BKN050 BKN100 FM181500 03006KT P6SM VCSH SCT035 BKN050 OVC100 FM181800 03008KT P6SM -RA BKN025 BKN035 OVC050

Sep-18@
06:00 UTC

Sep-18 @ 06:00 UTC

Sep-18@
09:00 UTC

Sep-18 @ 09:00 UTC

PAGA 180537Z 1806/1906 VRB05KT P6SM FEW035 SCT050 SCT100
Wind
  • Variable at 5 KTS
Cloud Levels
  • Few at 3,500' AGL
  • Scattered at 5,000' AGL
  • Scattered at 10,000' AGL

Sep-18@
09:00 UTC

Sep-18 @ 09:00 UTC

Sep-18@
15:00 UTC

Sep-18 @ 15:00 UTC

FM180900 06008KT P6SM SCT035 BKN050 BKN100

From

From Standard forecast or significant change

Wind
  • 060° at 8 KTS
Cloud Levels
  • Scattered at 3,500' AGL
  • Broken at 5,000' AGL
  • Broken at 10,000' AGL

Sep-18@
15:00 UTC

Sep-18 @ 15:00 UTC

Sep-18@
18:00 UTC

Sep-18 @ 18:00 UTC

FM181500 03006KT P6SM VCSH SCT035 BKN050 OVC100

From

From Standard forecast or significant change

Wind
  • 030° at 6 KTS
Cloud Levels
  • Scattered at 3,500' AGL
  • Broken at 5,000' AGL
  • Overcast at 10,000' AGL

Sep-18@
18:00 UTC

Sep-18 @ 18:00 UTC

Sep-19@
06:00 UTC

Sep-19 @ 06:00 UTC

FM181800 03008KT P6SM -RA BKN025 BKN035 OVC050

From

From Standard forecast or significant change

Wind
  • 030° at 8 KTS
Conditions
Light Rain
Cloud Levels
  • Broken at 2,500' AGL
  • Broken at 3,500' AGL
  • Overcast at 5,000' AGL